createdAt,value
2019-03-22T00:00:57.812Z,74.92
2019-03-22T00:03:25.677Z,74.44
2019-03-22T00:05:53.549Z,76.84
2019-03-22T00:08:21.501Z,75.14
2019-03-22T00:10:49.339Z,76.04
2019-03-22T00:13:17.222Z,77.19
2019-03-22T00:15:45.144Z,76.81
2019-03-22T00:18:13.002Z,75.44
2019-03-22T00:20:40.899Z,75.76
2019-03-22T00:23:08.799Z,76.03
2019-03-22T00:25:36.867Z,77.44
2019-03-22T00:28:04.702Z,75.47
2019-03-22T00:30:32.602Z,77.06
2019-03-22T00:33:00.485Z,78.19
2019-03-22T00:35:28.320Z,77.15
2019-03-22T00:37:56.185Z,75.32
2019-03-22T00:40:24.036Z,75.92
2019-03-22T00:42:51.922Z,76.34
2019-03-22T00:45:19.766Z,78.11
2019-03-22T00:47:47.565Z,78.26
2019-03-22T00:50:15.583Z,78.08
2019-03-22T00:52:43.435Z,77.37
2019-03-22T00:55:11.379Z,77.67
2019-03-22T00:57:39.261Z,78.02
2019-03-22T01:00:08.584Z,77.11
2019-03-22T01:02:36.455Z,78.54
2019-03-22T01:05:06.219Z,77.01
2019-03-22T01:07:34.081Z,78.08
2019-03-22T01:10:01.921Z,78.33
2019-03-22T01:12:29.819Z,76.07
2019-03-22T01:14:57.639Z,77.80
2019-03-22T01:17:25.482Z,77.00
2019-03-22T01:19:53.348Z,76.22
2019-03-22T01:22:21.242Z,75.23
2019-03-22T01:24:49.067Z,76.81
2019-03-22T01:27:16.939Z,76.83
2019-03-22T01:29:44.765Z,76.02
2019-03-22T01:32:12.640Z,77.43
2019-03-22T01:34:40.481Z,76.09
2019-03-22T01:37:08.341Z,75.13
2019-03-22T01:39:36.239Z,73.97
2019-03-22T01:42:04.245Z,74.50
2019-03-22T01:44:32.111Z,75.82
2019-03-22T01:46:59.981Z,78.15
2019-03-22T01:49:27.879Z,76.75
2019-03-22T01:51:56.211Z,77.05
2019-03-22T01:54:24.128Z,78.94
2019-03-22T01:56:52.814Z,77.35
2019-03-22T01:59:20.722Z,78.18
2019-03-22T02:01:48.565Z,79.45
2019-03-22T02:04:16.433Z,77.31
2019-03-22T02:06:44.387Z,77.27
2019-03-22T02:09:12.233Z,76.88
2019-03-22T02:11:40.099Z,77.60
2019-03-22T02:14:07.984Z,77.87
2019-03-22T02:16:35.979Z,77.94
2019-03-22T02:19:04.028Z,77.28
2019-03-22T02:21:31.859Z,77.79
2019-03-22T02:23:59.739Z,77.92
2019-03-22T02:26:27.599Z,77.74
2019-03-22T02:28:55.503Z,77.78
2019-03-22T02:31:23.339Z,77.88
2019-03-22T02:33:51.176Z,77.43
2019-03-22T02:36:19.258Z,76.81
2019-03-22T02:38:47.126Z,76.42
2019-03-22T02:41:14.994Z,77.31
2019-03-22T02:43:42.913Z,77.76
2019-03-22T02:46:10.780Z,77.19
2019-03-22T02:48:38.659Z,77.50
2019-03-22T02:51:06.584Z,77.98
2019-03-22T02:53:34.446Z,77.74
2019-03-22T02:56:02.504Z,77.70
2019-03-22T02:58:30.584Z,78.02
2019-03-22T03:00:58.760Z,78.64
2019-03-22T03:03:26.981Z,78.61
2019-03-22T03:05:54.826Z,77.70
2019-03-22T03:08:22.680Z,78.14
2019-03-22T03:10:50.551Z,79.06
2019-03-22T03:13:18.469Z,77.18
2019-03-22T03:15:46.303Z,76.56
2019-03-22T03:18:14.168Z,77.24
2019-03-22T03:20:42.063Z,78.95
2019-03-22T03:23:09.907Z,79.77
2019-03-22T03:25:37.763Z,79.74
2019-03-22T03:28:05.647Z,79.99
2019-03-22T03:30:33.458Z,79.79
2019-03-22T03:33:01.948Z,78.89
2019-03-22T03:35:29.753Z,78.18
2019-03-22T03:37:57.610Z,79.69
2019-03-22T03:40:25.502Z,79.90
2019-03-22T03:42:53.451Z,79.84
2019-03-22T03:45:34.742Z,78.91
2019-03-22T03:48:02.989Z,79.48
2019-03-22T03:50:30.842Z,80.17
2019-03-22T03:52:58.774Z,79.24
2019-03-22T03:55:26.722Z,78.15
2019-03-22T03:57:54.544Z,79.53
2019-03-22T04:00:22.418Z,78.62
2019-03-22T04:02:50.279Z,79.44
2019-03-22T04:05:18.150Z,80.88
2019-03-22T04:07:46.143Z,80.02
2019-03-22T04:10:14.043Z,81.21
2019-03-22T04:12:41.959Z,78.47
2019-03-22T04:15:09.903Z,79.61
2019-03-22T04:17:37.761Z,78.95
2019-03-22T04:20:05.893Z,80.56
2019-03-22T04:22:36.336Z,80.04
2019-03-22T04:25:03.761Z,79.64
2019-03-22T04:27:31.689Z,80.27
2019-03-22T04:29:59.559Z,80.26
2019-03-22T04:32:27.411Z,80.58
2019-03-22T04:34:55.655Z,79.78
2019-03-22T04:37:23.532Z,79.09
2019-03-22T04:39:51.356Z,78.84
2019-03-22T04:42:19.335Z,79.84
2019-03-22T04:44:47.242Z,80.47
2019-03-22T04:47:17.322Z,80.56
2019-03-22T04:49:45.759Z,80.55
2019-03-22T04:52:14.256Z,78.84
2019-03-22T04:54:42.859Z,78.35
2019-03-22T04:57:11.979Z,79.08
2019-03-22T04:59:41.042Z,79.24
2019-03-22T05:02:09.542Z,79.69
2019-03-22T05:04:38.960Z,79.29
2019-03-22T05:07:07.374Z,79.14
2019-03-22T05:09:36.287Z,79.53
2019-03-22T05:12:04.380Z,79.03
2019-03-22T05:14:33.760Z,79.11
2019-03-22T05:17:01.770Z,79.13
2019-03-22T05:19:31.445Z,78.38
2019-03-22T05:22:00.252Z,79.20
2019-03-22T05:24:28.863Z,78.39
2019-03-22T05:26:58.022Z,79.81
2019-03-22T05:29:30.927Z,81.01
2019-03-22T05:32:12.001Z,79.73
2019-03-22T05:34:39.883Z,80.05
2019-03-22T05:37:07.743Z,78.25
2019-03-22T05:39:35.661Z,78.94
2019-03-22T05:42:03.747Z,78.91
2019-03-22T05:44:31.599Z,79.69
2019-03-22T05:46:59.527Z,80.12
2019-03-22T05:49:27.524Z,80.85
2019-03-22T05:51:55.408Z,80.20
2019-03-22T05:54:23.298Z,79.28
2019-03-22T05:56:51.243Z,80.48
2019-03-22T05:59:19.136Z,79.76
2019-03-22T06:01:47.050Z,78.93
2019-03-22T06:04:14.966Z,78.91
2019-03-22T06:06:42.796Z,78.42
2019-03-22T06:09:10.632Z,78.07
2019-03-22T06:11:38.561Z,77.35
2019-03-22T06:14:06.484Z,78.06
2019-03-22T06:16:34.332Z,79.42
2019-03-22T06:19:02.221Z,79.21
2019-03-22T06:21:30.162Z,80.43
2019-03-22T06:23:58.070Z,79.54
2019-03-22T06:26:26.247Z,78.94
2019-03-22T06:28:54.125Z,78.14
2019-03-22T06:31:22.054Z,78.52
2019-03-22T06:33:49.939Z,78.69
2019-03-22T06:36:17.802Z,77.95
2019-03-22T06:38:45.671Z,78.98
2019-03-22T06:41:13.607Z,78.87
2019-03-22T06:43:41.427Z,77.78
2019-03-22T06:46:09.302Z,78.19
2019-03-22T06:48:37.300Z,79.68
2019-03-22T06:51:05.240Z,77.93
2019-03-22T06:53:33.518Z,78.94
2019-03-22T06:56:01.364Z,78.99
2019-03-22T06:58:29.243Z,77.87
2019-03-22T07:00:57.102Z,76.52
2019-03-22T07:03:25.009Z,75.98
2019-03-22T07:05:52.885Z,76.79
2019-03-22T07:08:20.742Z,77.58
2019-03-22T07:10:48.602Z,77.81
2019-03-22T07:13:16.501Z,78.52
2019-03-22T07:15:44.362Z,77.94
2019-03-22T07:18:12.243Z,77.25
2019-03-22T07:20:40.140Z,76.86
2019-03-22T07:23:07.979Z,76.23
2019-03-22T07:25:35.880Z,76.06
2019-03-22T07:28:04.074Z,75.83
2019-03-22T07:30:31.967Z,75.32
2019-03-22T07:32:59.902Z,75.58
2019-03-22T07:35:27.849Z,75.77
2019-03-22T07:37:55.725Z,75.44
2019-03-22T07:40:23.782Z,74.72
2019-03-22T07:42:51.934Z,75.55
2019-03-22T07:45:20.112Z,75.54
2019-03-22T07:47:48.354Z,75.87
2019-03-22T07:50:16.673Z,75.80
2019-03-22T07:52:44.752Z,74.79
2019-03-22T07:55:12.920Z,74.85
2019-03-22T07:57:40.996Z,71.93
2019-03-22T08:00:09.950Z,72.65
2019-03-22T08:02:38.146Z,71.60
2019-03-22T08:05:06.439Z,68.88
2019-03-22T08:07:34.471Z,68.86
2019-03-22T08:10:03.966Z,68.11
2019-03-22T08:12:32.353Z,66.79
2019-03-22T08:15:00.561Z,65.47
2019-03-22T08:17:28.680Z,67.37
2019-03-22T08:19:57.328Z,66.14
2019-03-22T08:22:25.614Z,66.23
2019-03-22T08:24:53.656Z,63.30
2019-03-22T08:27:22.173Z,62.40
2019-03-22T08:29:50.038Z,62.55
2019-03-22T08:32:18.042Z,62.40
2019-03-22T08:34:47.788Z,64.36
2019-03-22T08:37:15.656Z,60.44
2019-03-22T08:39:43.580Z,59.09
2019-03-22T08:42:11.486Z,60.86
2019-03-22T08:44:39.407Z,58.89
2019-03-22T08:47:07.450Z,57.34
2019-03-22T08:49:35.519Z,56.72
2019-03-22T08:52:04.265Z,57.22
2019-03-22T08:54:32.188Z,51.98
2019-03-22T08:57:00.087Z,49.21
2019-03-22T08:59:28.327Z,47.55
2019-03-22T09:01:56.180Z,50.71
2019-03-22T09:04:24.148Z,45.66
2019-03-22T09:06:52.093Z,47.37
2019-03-22T09:09:19.989Z,46.65
2019-03-22T09:11:47.862Z,46.70
2019-03-22T09:14:15.819Z,47.01
2019-03-22T09:16:43.757Z,47.82
2019-03-22T09:19:11.677Z,47.35
2019-03-22T09:21:39.607Z,46.98
2019-03-22T09:24:07.633Z,47.00
2019-03-22T09:26:47.182Z,46.12
2019-03-22T09:29:05.398Z,46.39
2019-03-22T09:31:33.372Z,44.64
2019-03-22T09:34:01.231Z,45.39
2019-03-22T09:36:29.123Z,45.28
2019-03-22T09:38:57.045Z,42.95
2019-03-22T09:41:24.989Z,44.58
2019-03-22T09:43:52.932Z,40.98
2019-03-22T09:46:20.813Z,43.78
2019-03-22T09:48:48.758Z,41.56
2019-03-22T09:51:16.654Z,42.82
2019-03-22T09:53:44.523Z,42.63
2019-03-22T09:56:12.883Z,43.59
2019-03-22T09:58:40.821Z,43.94
2019-03-22T10:01:08.822Z,42.56
2019-03-22T10:03:36.758Z,42.82
2019-03-22T10:06:04.699Z,40.97
2019-03-22T10:08:32.549Z,40.68
2019-03-22T10:11:00.432Z,41.89
2019-03-22T10:13:28.302Z,41.67
2019-03-22T10:15:56.122Z,43.15
2019-03-22T10:18:24.026Z,43.48
2019-03-22T10:20:52.183Z,41.52
2019-03-22T10:23:22.440Z,41.63
2019-03-22T10:25:49.905Z,42.60
2019-03-22T10:28:17.939Z,41.53
2019-03-22T10:30:45.894Z,41.50
2019-03-22T10:33:22.453Z,40.66
2019-03-22T10:35:43.605Z,40.83
2019-03-22T10:38:16.199Z,39.69
2019-03-22T10:40:41.446Z,42.05
2019-03-22T10:43:09.410Z,40.92
2019-03-22T10:45:37.395Z,41.40
2019-03-22T10:48:05.316Z,40.24
2019-03-22T10:50:33.165Z,39.21
2019-03-22T10:53:01.031Z,36.80
2019-03-22T10:55:30.536Z,38.54
2019-03-22T10:57:58.840Z,36.24
2019-03-22T11:00:26.700Z,36.77
2019-03-22T11:02:54.599Z,36.74
2019-03-22T11:05:22.472Z,34.03
2019-03-22T11:07:50.399Z,36.13
2019-03-22T11:10:18.384Z,35.66
2019-03-22T11:12:46.327Z,36.48
2019-03-22T11:15:14.406Z,36.53
2019-03-22T11:17:42.646Z,36.72
2019-03-22T11:20:13.582Z,35.75
2019-03-22T11:22:41.502Z,36.34
2019-03-22T11:25:09.901Z,34.61
2019-03-22T11:27:37.940Z,34.39
2019-03-22T11:30:08.949Z,34.44
2019-03-22T11:32:36.989Z,33.64
2019-03-22T11:35:05.761Z,34.15
2019-03-22T11:37:33.625Z,34.39
2019-03-22T11:40:01.471Z,35.99
2019-03-22T11:42:29.382Z,34.64
2019-03-22T11:44:58.442Z,33.68
2019-03-22T11:47:26.401Z,38.49
2019-03-22T11:49:54.302Z,35.44
2019-03-22T11:52:22.205Z,37.16
2019-03-22T11:54:50.117Z,34.76
2019-03-22T11:57:19.207Z,34.51
2019-03-22T11:59:47.110Z,35.50
2019-03-22T12:02:22.180Z,36.74
2019-03-22T12:04:44.837Z,36.71
2019-03-22T12:07:12.722Z,44.20
2019-03-22T12:09:40.694Z,44.39
2019-03-22T12:12:08.627Z,42.04
2019-03-22T12:14:36.481Z,41.70
2019-03-22T12:17:04.492Z,42.44
2019-03-22T12:19:32.426Z,39.51
2019-03-22T12:22:00.322Z,39.11
2019-03-22T12:24:28.324Z,38.88
2019-03-22T12:26:56.285Z,40.07
2019-03-22T12:29:24.137Z,37.62
2019-03-22T12:31:52.083Z,38.14
2019-03-22T12:34:20.065Z,39.55
2019-03-22T12:36:47.933Z,39.66
2019-03-22T12:39:15.825Z,40.08
2019-03-22T12:41:43.723Z,41.80
2019-03-22T12:44:11.692Z,40.39
2019-03-22T12:46:39.622Z,41.38
2019-03-22T12:49:07.639Z,39.97
2019-03-22T12:51:35.586Z,40.11
2019-03-22T12:54:03.599Z,39.64
2019-03-22T12:56:31.493Z,38.69
2019-03-22T12:58:59.486Z,39.61
2019-03-22T13:01:27.486Z,38.86
2019-03-22T13:03:55.379Z,40.04
2019-03-22T13:06:23.311Z,37.57
2019-03-22T13:08:51.259Z,37.28
2019-03-22T13:11:19.600Z,37.81
2019-03-22T13:13:47.525Z,38.73
2019-03-22T13:16:15.453Z,38.14
2019-03-22T13:18:50.167Z,37.88
2019-03-22T13:21:13.307Z,39.00
2019-03-22T13:23:41.204Z,38.58
2019-03-22T13:26:09.222Z,38.13
2019-03-22T13:28:37.139Z,40.99
2019-03-22T13:31:05.016Z,40.76
2019-03-22T13:33:32.984Z,40.07
2019-03-22T13:36:00.979Z,39.29
2019-03-22T13:38:28.959Z,38.26
2019-03-22T13:40:56.899Z,38.02
2019-03-22T13:43:24.753Z,39.85
2019-03-22T13:45:52.780Z,39.52
2019-03-22T13:48:20.691Z,39.22
2019-03-22T13:50:48.632Z,38.68
2019-03-22T13:53:16.571Z,38.34
2019-03-22T13:55:44.442Z,38.37
2019-03-22T13:58:12.341Z,36.91
2019-03-22T14:00:40.234Z,36.71
2019-03-22T14:03:08.161Z,37.24
2019-03-22T14:05:36.122Z,36.70
2019-03-22T14:08:04.222Z,38.11
2019-03-22T14:10:35.479Z,36.92
2019-03-22T14:13:04.341Z,39.09
2019-03-22T14:15:32.356Z,38.14
2019-03-22T14:18:00.611Z,40.19
2019-03-22T14:20:29.061Z,39.02
2019-03-22T14:22:56.991Z,39.38
2019-03-22T14:25:24.867Z,38.30
2019-03-22T14:27:52.784Z,38.41
2019-03-22T14:30:20.722Z,39.56
2019-03-22T14:32:48.591Z,38.93
2019-03-22T14:35:16.539Z,38.92
2019-03-22T14:37:44.417Z,39.52
2019-03-22T14:40:15.561Z,38.39
2019-03-22T14:42:42.183Z,38.26
2019-03-22T14:45:10.322Z,39.20
2019-03-22T14:47:38.293Z,39.10
2019-03-22T14:50:06.473Z,38.93
2019-03-22T14:52:34.506Z,38.58
2019-03-22T14:55:02.522Z,40.23
2019-03-22T14:57:30.526Z,40.24
2019-03-22T14:59:59.300Z,39.38
2019-03-22T15:02:27.492Z,41.55
2019-03-22T15:04:55.359Z,40.35
2019-03-22T15:07:23.269Z,40.30
2019-03-22T15:09:51.145Z,41.86
2019-03-22T15:12:19.048Z,39.86
2019-03-22T15:15:02.938Z,39.30
2019-03-22T15:18:05.315Z,41.61
2019-03-22T15:20:55.838Z,40.31
2019-03-22T15:23:46.436Z,38.90
2019-03-22T15:26:37.554Z,39.95
2019-03-22T15:32:09.353Z,40.77
2019-03-22T15:35:15.321Z,41.08
2019-03-22T15:38:09.017Z,40.29
2019-03-22T15:40:36.982Z,40.95
2019-03-22T15:43:04.944Z,41.89
2019-03-22T15:45:32.894Z,41.36
2019-03-22T15:48:00.762Z,40.88
2019-03-22T15:50:28.704Z,41.18
2019-03-22T15:52:56.623Z,42.61
2019-03-22T15:55:24.619Z,41.92
2019-03-22T15:57:52.479Z,42.51
2019-03-22T16:00:21.387Z,43.96
2019-03-22T16:02:49.442Z,43.79
2019-03-22T16:05:17.379Z,45.22
2019-03-22T16:07:45.336Z,45.23
2019-03-22T16:10:13.323Z,44.41
2019-03-22T16:12:41.205Z,46.60
2019-03-22T16:15:09.760Z,45.73
2019-03-22T16:17:37.674Z,46.32
2019-03-22T16:20:06.364Z,45.70
2019-03-22T16:22:35.389Z,45.29
2019-03-22T16:25:03.711Z,44.35
2019-03-22T16:27:31.721Z,44.95
2019-03-22T16:29:59.711Z,44.41
2019-03-22T16:32:27.694Z,44.79
2019-03-22T16:34:55.662Z,46.57
2019-03-22T16:37:23.636Z,47.20
2019-03-22T16:39:51.459Z,47.21
2019-03-22T16:42:19.419Z,45.99
2019-03-22T16:44:47.319Z,47.76
2019-03-22T16:47:15.239Z,47.16
2019-03-22T16:49:43.159Z,45.61
2019-03-22T16:52:11.086Z,46.41
2019-03-22T16:54:38.993Z,46.13
2019-03-22T16:57:06.902Z,46.33
2019-03-22T16:59:34.983Z,47.18
2019-03-22T17:02:03.377Z,46.96
2019-03-22T17:04:31.488Z,46.46
2019-03-22T17:06:59.490Z,46.56
2019-03-22T17:09:27.566Z,45.66
2019-03-22T17:11:55.645Z,47.58
2019-03-22T17:14:23.660Z,47.33
2019-03-22T17:16:52.111Z,48.27
2019-03-22T17:19:20.141Z,48.28
2019-03-22T17:21:48.175Z,47.07
2019-03-22T17:24:16.365Z,50.64
2019-03-22T17:26:44.394Z,50.54
2019-03-22T17:29:12.513Z,49.67
2019-03-22T17:31:40.653Z,50.51
2019-03-22T17:34:14.174Z,52.45
2019-03-22T17:36:38.882Z,52.09
2019-03-22T17:39:08.278Z,52.34
2019-03-22T17:41:36.402Z,54.70
2019-03-22T17:44:04.672Z,53.13
2019-03-22T17:46:32.956Z,52.76
2019-03-22T17:49:01.635Z,53.46
2019-03-22T17:51:30.273Z,52.60
2019-03-22T17:53:58.594Z,54.16
2019-03-22T17:56:27.738Z,54.28
2019-03-22T17:58:55.948Z,53.66
2019-03-22T18:01:24.252Z,53.86
2019-03-22T18:03:52.453Z,54.03
2019-03-22T18:06:20.591Z,56.68
2019-03-22T18:08:48.875Z,56.94
2019-03-22T18:11:17.140Z,56.29
2019-03-22T18:13:45.539Z,56.44
2019-03-22T18:16:13.855Z,56.97
2019-03-22T18:18:42.132Z,57.36
2019-03-22T18:21:10.535Z,56.93
2019-03-22T18:23:38.865Z,56.90
2019-03-22T18:26:07.373Z,57.15
2019-03-22T18:28:35.681Z,57.54
2019-03-22T18:31:04.166Z,58.27
2019-03-22T18:33:32.514Z,58.32
2019-03-22T18:36:00.930Z,57.56
2019-03-22T18:38:29.176Z,58.35
2019-03-22T18:40:57.501Z,58.00
2019-03-22T18:43:25.984Z,57.19
2019-03-22T18:45:54.320Z,57.60
2019-03-22T18:48:23.143Z,58.06
2019-03-22T18:50:56.809Z,58.78
2019-03-22T18:53:21.835Z,57.93
2019-03-22T18:55:50.845Z,58.02
2019-03-22T18:58:19.207Z,58.79
2019-03-22T19:00:49.649Z,58.43
2019-03-22T19:03:17.968Z,58.82
2019-03-22T19:05:46.782Z,58.45
2019-03-22T19:08:17.580Z,59.72
2019-03-22T19:10:46.084Z,59.71
2019-03-22T19:13:14.479Z,59.81
2019-03-22T19:15:42.848Z,59.82
2019-03-22T19:18:11.327Z,60.49
2019-03-22T19:20:40.826Z,60.07
2019-03-22T19:23:09.121Z,60.16
2019-03-22T19:25:37.502Z,59.80
2019-03-22T19:28:05.970Z,59.12
2019-03-22T19:30:34.425Z,58.74
2019-03-22T19:33:02.808Z,59.08
2019-03-22T19:35:31.432Z,60.44
2019-03-22T19:37:59.997Z,61.21
2019-03-22T19:40:28.397Z,62.02
2019-03-22T19:42:56.787Z,60.82
2019-03-22T19:45:24.983Z,60.97
2019-03-22T19:47:53.297Z,61.69
2019-03-22T19:50:21.668Z,61.15
2019-03-22T19:52:50.041Z,62.40
2019-03-22T19:55:18.598Z,62.93
2019-03-22T19:57:48.048Z,62.71
2019-03-22T20:00:17.160Z,62.28
2019-03-22T20:02:45.725Z,63.01
2019-03-22T20:05:21.887Z,64.39
2019-03-22T20:07:50.460Z,64.20
2019-03-22T20:10:19.839Z,65.06
2019-03-22T20:12:48.377Z,65.69
2019-03-22T20:15:18.842Z,65.40
2019-03-22T20:17:49.563Z,64.33
2019-03-22T20:20:18.789Z,64.69
2019-03-22T20:22:48.766Z,64.67
2019-03-22T20:25:17.317Z,64.32
2019-03-22T20:27:45.617Z,63.01
2019-03-22T20:30:14.336Z,64.39
2019-03-22T20:32:42.704Z,63.30
2019-03-22T20:35:16.311Z,62.04
2019-03-22T20:37:41.228Z,65.25
2019-03-22T20:40:10.108Z,64.78
2019-03-22T20:42:38.640Z,64.50
2019-03-22T20:45:09.186Z,63.24
2019-03-22T20:47:37.486Z,63.14
2019-03-22T20:50:06.357Z,61.40
2019-03-22T20:52:35.064Z,63.58
2019-03-22T20:55:03.762Z,63.20
2019-03-22T20:57:32.366Z,62.84
2019-03-22T21:00:00.774Z,62.57
2019-03-22T21:02:29.186Z,63.91
2019-03-22T21:04:57.499Z,62.76
2019-03-22T21:07:25.911Z,63.08
2019-03-22T21:09:54.867Z,62.89
2019-03-22T21:12:23.382Z,63.68
2019-03-22T21:14:51.647Z,64.47
2019-03-22T21:17:20.019Z,65.69
2019-03-22T21:19:48.349Z,65.13
2019-03-22T21:22:16.697Z,65.22
2019-03-22T21:24:47.396Z,64.77
2019-03-22T21:27:16.138Z,65.04
2019-03-22T21:29:44.743Z,66.15
2019-03-22T21:32:13.219Z,66.95
2019-03-22T21:34:43.940Z,68.56
2019-03-22T21:37:11.950Z,68.82
2019-03-22T21:39:40.102Z,68.00
2019-03-22T21:42:08.257Z,69.34
2019-03-22T21:44:36.372Z,68.54
2019-03-22T21:47:04.839Z,68.00
2019-03-22T21:49:32.811Z,68.07
2019-03-22T21:52:00.888Z,69.09
2019-03-22T21:54:29.052Z,68.18
2019-03-22T21:56:57.532Z,69.43
2019-03-22T21:59:25.498Z,69.40
2019-03-22T22:01:53.572Z,69.36
2019-03-22T22:04:21.586Z,70.67
2019-03-22T22:06:49.486Z,70.11
2019-03-22T22:09:17.391Z,69.09
2019-03-22T22:11:45.307Z,69.87
2019-03-22T22:14:13.262Z,68.60
2019-03-22T22:16:41.179Z,69.55
2019-03-22T22:19:09.068Z,69.13
2019-03-22T22:21:36.992Z,68.88
2019-03-22T22:24:04.883Z,71.21
2019-03-22T22:26:32.845Z,69.11
2019-03-22T22:29:00.724Z,69.39
2019-03-22T22:31:28.589Z,68.61
2019-03-22T22:33:56.446Z,69.77
2019-03-22T22:39:34.442Z,69.72
2019-03-22T22:42:02.367Z,69.28
2019-03-22T22:44:30.261Z,69.64
2019-03-22T22:46:58.392Z,70.14
2019-03-22T22:49:26.333Z,70.07
2019-03-22T22:51:54.251Z,70.00
2019-03-22T22:54:22.141Z,69.11
2019-03-22T22:56:50.042Z,70.38
2019-03-22T22:59:17.919Z,68.92
2019-03-22T23:01:45.859Z,69.16
2019-03-22T23:04:13.731Z,70.20
2019-03-22T23:06:41.626Z,70.01
2019-03-22T23:09:09.541Z,70.86
2019-03-22T23:11:37.399Z,71.04
2019-03-22T23:14:05.326Z,71.09
2019-03-22T23:16:33.184Z,70.17
2019-03-22T23:19:01.139Z,70.12
2019-03-22T23:21:29.043Z,71.02
2019-03-22T23:23:56.949Z,71.04
2019-03-22T23:26:24.881Z,72.62
2019-03-22T23:28:52.763Z,72.84
2019-03-22T23:31:22.299Z,73.15
2019-03-22T23:33:50.312Z,73.04
2019-03-22T23:36:20.524Z,72.65
2019-03-22T23:38:48.051Z,71.89
2019-03-22T23:41:15.891Z,72.36
2019-03-22T23:43:43.739Z,71.36
2019-03-22T23:46:11.742Z,72.43
2019-03-22T23:48:39.636Z,71.73
2019-03-22T23:51:07.552Z,73.29
2019-03-22T23:53:35.461Z,73.11
2019-03-22T23:56:03.366Z,72.32
2019-03-22T23:58:31.257Z,72.69
